Presque Isle, Michigan
Current Conditions -  °F | °C
As of 12:54 AM on Sunday 23 Nov 2014 (Local Time) from KAPN Reporting Station
Haze Haze  
Wind Chill: 34°   Ceiling: 400
Heat Index: 38°   Visibility: 3mi
Dew Point: 38°   Wind: 5mph
Humidity: 100%   Direction: 180°S
Pressure: 29.84"   Gusts: NA
Location:  45.3°N, 83.48°W
Report Text: KAPN 230554Z AUTO 18004KT 3SM BR OVC004 03/03 A2984 RMK AO2 SLP111 T00330033 10044 20028 51009
Loading
Personal Weather Stations






























Interactive Weather Map New forecast layout! Learn more

10-Day Weather Forecast

Advertisements
Track Severe Weather on mobile